createdAt,value
2019-04-16T00:01:08.139Z,99096.05
2019-04-16T00:03:38.903Z,99093.94
2019-04-16T00:06:14.814Z,99091.81
2019-04-16T00:08:50.063Z,99084.97
2019-04-16T00:11:24.564Z,99076.83
2019-04-16T00:13:57.954Z,99077.89
2019-04-16T00:16:26.743Z,99074.91
2019-04-16T00:18:58.050Z,99075.49
2019-04-16T00:21:51.186Z,99068.68
2019-04-16T00:24:24.505Z,99075.50
2019-04-16T00:26:58.070Z,99073.34
2019-04-16T00:29:24.893Z,99077.67
2019-04-16T00:32:12.605Z,99074.95
2019-04-16T00:34:44.504Z,99065.77
2019-04-16T00:37:12.283Z,99066.25
2019-04-16T00:39:40.973Z,99068.45
2019-04-16T00:42:10.426Z,99064.89
2019-04-16T00:44:39.135Z,99061.28
2019-04-16T00:47:08.205Z,99059.75
2019-04-16T00:49:38.049Z,99055.65
2019-04-16T00:52:07.406Z,99063.02
2019-04-16T00:54:36.176Z,99053.19
2019-04-16T00:57:05.184Z,99051.28
2019-04-16T00:59:33.955Z,99047.77
2019-04-16T01:02:02.799Z,99052.70
2019-04-16T01:04:31.550Z,99047.83
2019-04-16T01:07:00.497Z,99048.65
2019-04-16T01:09:30.090Z,99048.91
2019-04-16T01:11:59.166Z,99039.92
2019-04-16T01:14:28.105Z,99038.80
2019-04-16T01:16:57.163Z,99046.97
2019-04-16T01:19:25.920Z,99042.41
2019-04-16T01:21:55.192Z,99040.21
2019-04-16T01:24:23.949Z,99041.34
2019-04-16T01:26:52.625Z,99040.00
2019-04-16T01:29:22.059Z,99037.27
2019-04-16T01:32:11.381Z,99037.80
2019-04-16T01:34:58.620Z,99036.45
2019-04-16T01:37:44.908Z,99037.52
2019-04-16T01:40:18.446Z,99040.28
2019-04-16T01:42:46.337Z,99038.67
2019-04-16T01:45:15.068Z,99036.78
2019-04-16T01:47:44.244Z,99035.45
2019-04-16T01:50:14.084Z,99036.81
2019-04-16T01:52:43.041Z,99044.16
2019-04-16T01:55:12.052Z,99041.19
2019-04-16T01:57:41.003Z,99040.09
2019-04-16T02:00:10.810Z,99042.81
2019-04-16T02:02:39.783Z,99041.46
2019-04-16T02:05:08.854Z,99037.66
2019-04-16T02:07:38.840Z,99041.74
2019-04-16T02:10:08.126Z,99038.49
2019-04-16T02:12:36.945Z,99037.11
2019-04-16T02:15:07.525Z,99042.00
2019-04-16T02:17:36.237Z,99040.90
2019-04-16T02:20:07.467Z,99035.18
2019-04-16T02:22:37.028Z,99042.27
2019-04-16T02:25:06.228Z,99036.28
2019-04-16T02:27:35.153Z,99043.63
2019-04-16T02:30:05.682Z,99037.36
2019-04-16T02:32:34.530Z,99043.86
2019-04-16T02:35:06.024Z,99042.51
2019-04-16T02:37:36.346Z,99042.25
2019-04-16T02:40:05.515Z,99036.53
2019-04-16T02:42:34.538Z,99038.16
2019-04-16T02:45:03.760Z,99033.82
2019-04-16T02:47:32.525Z,99036.82
2019-04-16T02:50:02.178Z,99031.10
2019-04-16T02:52:51.061Z,99037.36
2019-04-16T02:55:24.904Z,99037.88
2019-04-16T02:58:00.095Z,99037.58
2019-04-16T03:00:41.102Z,99032.45
2019-04-16T03:03:13.620Z,99030.79
2019-04-16T03:05:45.492Z,99029.70
2019-04-16T03:08:14.367Z,99029.67
2019-04-16T03:10:44.611Z,99026.41
2019-04-16T03:13:13.869Z,99028.25
2019-04-16T03:16:08.919Z,99018.98
2019-04-16T03:18:47.552Z,99020.88
2019-04-16T03:21:16.621Z,99014.38
2019-04-16T03:23:45.358Z,99013.55
2019-04-16T03:26:17.592Z,98999.41
2019-04-16T03:28:44.718Z,99004.34
2019-04-16T03:31:19.500Z,98999.99
2019-04-16T03:33:50.578Z,99004.86
2019-04-16T03:36:14.670Z,98999.45
2019-04-16T03:38:43.841Z,98995.37
2019-04-16T03:41:12.759Z,98992.39
2019-04-16T03:43:41.487Z,98988.05
2019-04-16T03:46:12.772Z,98991.02
2019-04-16T03:48:40.902Z,98986.41
2019-04-16T03:51:09.603Z,98973.95
2019-04-16T03:53:38.318Z,98974.22
2019-04-16T03:56:07.075Z,98969.31
2019-04-16T03:58:38.628Z,98969.56
2019-04-16T04:01:06.508Z,98965.50
2019-04-16T04:03:35.209Z,98964.42
2019-04-16T04:06:06.850Z,98960.07
2019-04-16T04:08:34.329Z,98961.42
2019-04-16T04:11:03.011Z,98966.00
2019-04-16T04:13:31.702Z,98967.06
2019-04-16T04:16:01.630Z,98959.75
2019-04-16T04:18:31.190Z,98958.41
2019-04-16T04:20:59.880Z,98964.59
2019-04-16T04:23:29.409Z,98968.15
2019-04-16T04:25:58.203Z,98960.58
2019-04-16T04:28:26.939Z,98959.77
2019-04-16T04:30:57.700Z,98953.26
2019-04-16T04:33:40.373Z,98957.56
2019-04-16T04:36:08.397Z,98962.20
2019-04-16T04:38:38.499Z,98960.53
2019-04-16T04:41:07.863Z,98960.52
2019-04-16T04:43:37.174Z,98961.35
2019-04-16T04:46:06.150Z,98961.59
2019-04-16T04:48:34.924Z,98961.89
2019-04-16T04:51:07.242Z,98965.13
2019-04-16T04:53:34.227Z,98960.04
2019-04-16T04:56:02.908Z,98961.38
2019-04-16T04:58:34.102Z,98964.05
2019-04-16T05:01:02.548Z,98968.15
2019-04-16T05:03:53.549Z,98959.46
2019-04-16T05:06:27.817Z,98970.08
2019-04-16T05:08:57.550Z,98966.29
2019-04-16T05:11:27.477Z,98970.08
2019-04-16T05:13:57.023Z,98966.03
2019-04-16T05:16:25.843Z,98969.53
2019-04-16T05:18:54.855Z,98968.73
2019-04-16T05:21:23.539Z,98962.78
2019-04-16T05:23:57.024Z,98970.08
2019-04-16T05:26:23.113Z,98970.06
2019-04-16T05:28:51.911Z,98965.95
2019-04-16T05:31:24.557Z,98967.89
2019-04-16T05:33:51.309Z,98973.53
2019-04-16T05:36:21.571Z,98963.55
2019-04-16T05:38:55.529Z,98971.69
2019-04-16T05:41:22.802Z,98970.61
2019-04-16T05:43:51.748Z,98973.31
2019-04-16T05:46:20.434Z,98976.31
2019-04-16T05:48:51.386Z,98977.39
2019-04-16T05:51:19.790Z,98975.79
2019-04-16T05:53:52.237Z,98969.84
2019-04-16T05:56:35.551Z,98973.13
2019-04-16T05:59:04.295Z,98966.58
2019-04-16T06:01:38.045Z,98971.77
2019-04-16T06:04:06.808Z,98971.80
2019-04-16T06:06:35.574Z,98971.28
2019-04-16T06:09:11.912Z,98971.83
2019-04-16T06:11:37.679Z,98962.34
2019-04-16T06:14:26.237Z,98972.96
2019-04-16T06:17:08.557Z,98968.61
2019-04-16T06:19:46.752Z,98964.53
2019-04-16T06:22:22.205Z,98964.53
2019-04-16T06:25:10.859Z,98964.53
2019-04-16T06:27:56.680Z,98967.25
2019-04-16T06:30:45.346Z,98969.71
2019-04-16T06:33:17.678Z,98972.97
2019-04-16T06:36:05.964Z,98973.78
2019-04-16T06:38:42.837Z,98972.67
2019-04-16T06:41:41.197Z,98972.13
2019-04-16T06:43:59.673Z,98972.13
2019-04-16T06:46:47.951Z,98971.31
2019-04-16T06:49:30.890Z,98976.21
2019-04-16T06:52:18.125Z,98972.11
2019-04-16T06:55:05.130Z,98966.38
2019-04-16T06:57:51.535Z,98967.97
2019-04-16T07:00:45.046Z,98963.88
2019-04-16T07:03:32.620Z,98965.23
2019-04-16T07:06:29.466Z,98964.91
2019-04-16T07:09:05.798Z,98960.52
2019-04-16T07:11:34.886Z,98956.02
2019-04-16T07:14:03.771Z,98946.95
2019-04-16T07:16:32.740Z,98941.53
2019-04-16T07:19:01.916Z,98943.73
2019-04-16T07:21:30.634Z,98946.20
2019-04-16T07:23:59.773Z,98946.38
2019-04-16T07:26:28.636Z,98951.66
2019-04-16T07:29:14.188Z,98942.77
2019-04-16T07:31:53.489Z,98949.84
2019-04-16T07:34:35.849Z,98953.03
2019-04-16T07:37:38.675Z,98950.78
2019-04-16T07:40:32.503Z,98950.14
2019-04-16T07:43:16.346Z,98956.27
2019-04-16T07:45:52.107Z,98946.92
2019-04-16T07:48:28.270Z,98948.72
2019-04-16T07:51:05.554Z,98950.78
2019-04-16T07:53:52.463Z,98951.45
2019-04-16T07:56:23.813Z,98959.82
2019-04-16T07:58:52.518Z,98953.25
2019-04-16T08:01:21.513Z,98955.06
2019-04-16T08:03:51.969Z,98946.20
2019-04-16T08:06:20.772Z,98959.16
2019-04-16T08:08:49.870Z,98956.10
2019-04-16T08:11:18.829Z,98944.80
2019-04-16T08:13:47.546Z,98949.27
2019-04-16T08:16:16.295Z,98924.66
2019-04-16T08:18:49.466Z,98948.48
2019-04-16T08:21:18.199Z,98945.95
2019-04-16T08:23:53.849Z,98951.45
2019-04-16T08:26:22.890Z,98948.91
2019-04-16T08:28:51.579Z,98945.00
2019-04-16T08:31:23.830Z,98951.25
2019-04-16T08:33:52.586Z,98950.20
2019-04-16T08:36:21.319Z,98940.31
2019-04-16T08:38:50.032Z,98944.84
2019-04-16T08:41:21.391Z,98941.42
2019-04-16T08:43:49.482Z,98942.94
2019-04-16T08:46:18.201Z,98939.59
2019-04-16T08:48:49.329Z,98935.07
2019-04-16T08:51:29.697Z,98935.44
2019-04-16T08:53:48.113Z,98931.88
2019-04-16T08:56:16.833Z,98936.99
2019-04-16T08:58:45.668Z,98932.13
2019-04-16T09:01:23.260Z,98935.58
2019-04-16T09:03:49.047Z,98934.39
2019-04-16T09:06:17.837Z,98931.97
2019-04-16T09:08:54.542Z,98923.59
2019-04-16T09:11:24.073Z,98923.59
2019-04-16T09:13:58.038Z,98923.19
2019-04-16T09:16:26.920Z,98929.31
2019-04-16T09:19:00.434Z,98920.32
2019-04-16T09:21:29.213Z,98928.17
2019-04-16T09:24:15.775Z,98923.65
2019-04-16T09:26:52.692Z,98917.70
2019-04-16T09:29:45.447Z,98927.09
2019-04-16T09:32:33.273Z,98916.13
2019-04-16T09:35:18.417Z,98916.47
2019-04-16T09:37:50.701Z,98912.18
2019-04-16T09:40:44.974Z,98917.25
2019-04-16T09:43:18.426Z,98910.06
2019-04-16T09:45:47.957Z,98911.75
2019-04-16T09:48:16.685Z,98916.55
2019-04-16T09:50:47.816Z,98908.18
2019-04-16T09:53:15.864Z,98908.25
2019-04-16T09:55:47.466Z,98910.98
2019-04-16T09:58:21.759Z,98907.20
2019-04-16T10:01:18.278Z,98907.22
2019-04-16T10:03:49.333Z,98899.62
2019-04-16T10:06:18.145Z,98896.23
2019-04-16T10:08:47.177Z,98898.05
2019-04-16T10:11:18.538Z,98895.50
2019-04-16T10:13:46.850Z,98892.61
2019-04-16T10:16:15.590Z,98892.64
2019-04-16T10:18:44.295Z,98892.42
2019-04-16T10:21:18.757Z,98893.72
2019-04-16T10:23:53.827Z,98888.14
2019-04-16T10:26:22.587Z,98882.72
2019-04-16T10:28:51.308Z,98876.79
2019-04-16T10:31:20.305Z,98873.95
2019-04-16T10:33:49.040Z,98873.30
2019-04-16T10:36:17.763Z,98870.52
2019-04-16T10:38:52.415Z,98867.02
2019-04-16T10:41:29.223Z,98873.34
2019-04-16T10:44:17.235Z,98875.47
2019-04-16T10:47:04.980Z,98864.53
2019-04-16T10:50:07.759Z,98866.80
2019-04-16T10:53:13.713Z,98871.14
2019-04-16T10:56:07.461Z,98862.97
2019-04-16T10:59:04.086Z,98865.34
2019-04-16T11:01:37.093Z,98871.06
2019-04-16T11:04:13.911Z,98869.61
2019-04-16T11:06:45.296Z,98866.22
2019-04-16T11:09:14.109Z,98870.31
2019-04-16T11:11:43.010Z,98862.08
2019-04-16T11:14:12.106Z,98860.11
2019-04-16T11:16:43.106Z,98855.31
2019-04-16T11:19:12.381Z,98862.68
2019-04-16T11:21:41.707Z,98851.71
2019-04-16T11:24:10.451Z,98849.21
2019-04-16T11:26:39.424Z,98851.19
2019-04-16T11:29:08.719Z,98847.16
2019-04-16T11:31:38.032Z,98849.92
2019-04-16T11:34:07.764Z,98852.55
2019-04-16T11:36:37.278Z,98842.74
2019-04-16T11:39:09.112Z,98851.27
2019-04-16T11:41:37.227Z,98844.79
2019-04-16T11:44:15.238Z,98840.38
2019-04-16T11:46:36.739Z,98837.63
2019-04-16T11:49:05.611Z,98842.52
2019-04-16T11:51:34.482Z,98846.34
2019-04-16T11:54:03.222Z,98842.75
2019-04-16T11:56:31.915Z,98844.38
2019-04-16T11:59:00.960Z,98844.99
2019-04-16T12:01:58.120Z,98841.02
2019-04-16T12:04:59.014Z,98840.26
2019-04-16T12:07:32.799Z,98841.31
2019-04-16T12:10:19.414Z,98841.98
2019-04-16T12:13:06.215Z,98846.50
2019-04-16T12:15:54.352Z,98834.55
2019-04-16T12:18:32.942Z,98841.27
2019-04-16T12:21:08.048Z,98829.05
2019-04-16T12:24:14.020Z,98838.28
2019-04-16T12:27:11.309Z,98830.21
2019-04-16T12:29:57.458Z,98834.34
2019-04-16T12:32:52.647Z,98833.56
2019-04-16T12:35:34.751Z,98836.30
2019-04-16T12:38:12.004Z,98833.16
2019-04-16T12:40:58.094Z,98834.34
2019-04-16T12:43:35.834Z,98837.56
2019-04-16T12:46:11.925Z,98829.13
2019-04-16T12:48:58.892Z,98827.14
2019-04-16T12:51:40.989Z,98829.41
2019-04-16T12:54:28.892Z,98827.54
2019-04-16T12:57:19.952Z,98824.83
2019-04-16T13:00:19.737Z,98823.18
2019-04-16T13:02:56.968Z,98826.06
2019-04-16T13:05:32.318Z,98818.18
2019-04-16T13:08:32.518Z,98817.52
2019-04-16T13:11:23.157Z,98813.59
2019-04-16T13:14:13.589Z,98807.52
2019-04-16T13:16:59.804Z,98813.98
2019-04-16T13:19:49.514Z,98811.55
2019-04-16T13:22:19.941Z,98808.38
2019-04-16T13:24:53.254Z,98814.97
2019-04-16T13:27:24.387Z,98813.92
2019-04-16T13:29:53.598Z,98806.30
2019-04-16T13:32:22.519Z,98806.55
2019-04-16T13:34:51.310Z,98805.50
2019-04-16T13:37:20.004Z,98806.44
2019-04-16T13:39:59.278Z,98811.42
2019-04-16T13:42:26.064Z,98809.91
2019-04-16T13:45:15.263Z,98803.98
2019-04-16T13:47:30.358Z,98806.05
2019-04-16T13:50:17.603Z,98806.96
2019-04-16T13:52:47.156Z,98808.48
2019-04-16T13:55:24.839Z,98812.09
2019-04-16T13:58:02.915Z,98806.41
2019-04-16T14:00:37.193Z,98810.78
2019-04-16T14:03:09.984Z,98805.16
2019-04-16T14:05:42.521Z,98802.97
2019-04-16T14:08:09.298Z,98805.57
2019-04-16T14:10:38.076Z,98798.91
2019-04-16T14:13:12.133Z,98796.92
2019-04-16T14:15:40.375Z,98796.66
2019-04-16T14:18:07.998Z,98794.92
2019-04-16T14:20:36.702Z,98790.63
2019-04-16T14:23:05.782Z,98791.23
2019-04-16T14:25:34.504Z,98800.57
2019-04-16T14:28:03.752Z,98795.40
2019-04-16T14:30:42.755Z,98792.45
2019-04-16T14:33:12.205Z,98801.22
2019-04-16T14:35:41.036Z,98792.88
2019-04-16T14:38:09.725Z,98797.11
2019-04-16T14:40:39.720Z,98796.03
2019-04-16T14:43:08.861Z,98801.41
2019-04-16T14:45:56.984Z,98798.58
2019-04-16T14:48:11.835Z,98798.27
2019-04-16T14:50:40.874Z,98795.16
2019-04-16T14:53:09.637Z,98799.05
2019-04-16T14:55:59.930Z,98797.39
2019-04-16T14:58:43.252Z,98797.42
2019-04-16T15:01:36.031Z,98800.60
2019-04-16T15:04:23.847Z,98808.09
2019-04-16T15:07:14.378Z,98796.48
2019-04-16T15:10:04.960Z,98801.58
2019-04-16T15:12:58.719Z,98801.41
2019-04-16T15:15:34.532Z,98802.70
2019-04-16T15:18:08.451Z,98800.20
2019-04-16T15:20:47.648Z,98798.00
2019-04-16T15:23:22.567Z,98798.38
2019-04-16T15:26:01.801Z,98796.75
2019-04-16T15:28:41.669Z,98799.42
2019-04-16T15:31:15.939Z,98799.81
2019-04-16T15:33:55.459Z,98796.31
2019-04-16T15:36:28.114Z,98802.09
2019-04-16T15:39:14.451Z,98798.13
2019-04-16T15:42:05.633Z,98798.55
2019-04-16T15:45:08.918Z,98804.61
2019-04-16T15:48:09.127Z,98800.33
2019-04-16T15:50:46.333Z,98798.20
2019-04-16T15:53:38.774Z,98798.79
2019-04-16T15:56:25.282Z,98807.58
2019-04-16T15:59:25.045Z,98809.81
2019-04-16T16:02:13.855Z,98815.42
2019-04-16T16:04:47.259Z,98808.48
2019-04-16T16:07:23.995Z,98813.30
2019-04-16T16:09:59.595Z,98813.17
2019-04-16T16:12:30.105Z,98818.97
2019-04-16T16:14:58.840Z,98818.33
2019-04-16T16:17:27.560Z,98817.20
2019-04-16T16:19:56.608Z,98819.27
2019-04-16T16:22:25.560Z,98822.29
2019-04-16T16:24:54.382Z,98821.73
2019-04-16T16:27:23.136Z,98824.78
2019-04-16T16:29:51.811Z,98826.73
2019-04-16T16:32:20.580Z,98828.80
2019-04-16T16:34:49.554Z,98835.02
2019-04-16T16:37:18.525Z,98833.90
2019-04-16T16:39:47.471Z,98831.69
2019-04-16T16:42:16.267Z,98844.27
2019-04-16T16:44:44.947Z,98843.55
2019-04-16T16:47:22.286Z,98847.36
2019-04-16T16:49:51.006Z,98846.78
2019-04-16T16:52:38.907Z,98853.93
2019-04-16T16:55:11.035Z,98851.39
2019-04-16T16:57:46.185Z,98848.59
2019-04-16T17:00:33.510Z,98847.09
2019-04-16T17:03:18.437Z,98857.18
2019-04-16T17:05:47.649Z,98858.43
2019-04-16T17:08:17.108Z,98862.08
2019-04-16T17:10:45.871Z,98861.98
2019-04-16T17:13:18.565Z,98855.59
2019-04-16T17:15:45.103Z,98861.89
2019-04-16T17:18:13.842Z,98860.20
2019-04-16T17:20:42.785Z,98867.63
2019-04-16T17:23:16.434Z,98871.30
2019-04-16T17:25:42.009Z,98869.77
2019-04-16T17:28:10.742Z,98864.55
2019-04-16T17:30:39.424Z,98872.68
2019-04-16T17:33:08.215Z,98870.20
2019-04-16T17:35:37.306Z,98877.24
2019-04-16T17:38:07.179Z,98874.21
2019-04-16T17:40:58.729Z,98875.92
2019-04-16T17:43:59.911Z,98878.42
2019-04-16T17:46:29.419Z,98885.48
2019-04-16T17:49:16.184Z,98887.66
2019-04-16T17:51:59.037Z,98889.45
2019-04-16T17:54:34.594Z,98891.76
2019-04-16T17:57:14.224Z,98891.53
2019-04-16T17:59:54.093Z,98895.77
2019-04-16T18:02:40.823Z,98902.86
2019-04-16T18:05:34.706Z,98910.47
2019-04-16T18:08:34.782Z,98909.70
2019-04-16T18:11:31.644Z,98909.23
2019-04-16T18:14:13.078Z,98909.56
2019-04-16T18:16:59.352Z,98922.17
2019-04-16T18:19:47.109Z,98922.77
2019-04-16T18:22:22.134Z,98925.69
2019-04-16T18:25:13.562Z,98929.64
2019-04-16T18:27:52.419Z,98932.25
2019-04-16T18:30:37.426Z,98937.91
2019-04-16T18:33:37.082Z,98934.52
2019-04-16T18:36:18.912Z,98939.05
2019-04-16T18:39:05.876Z,98947.53
2019-04-16T18:41:45.879Z,98945.11
2019-04-16T18:44:34.489Z,98953.61
2019-04-16T18:47:21.056Z,98958.25
2019-04-16T18:49:52.423Z,98958.02
2019-04-16T18:52:21.148Z,98971.03
2019-04-16T18:54:50.015Z,98969.33
2019-04-16T18:57:19.035Z,98972.72
2019-04-16T18:59:47.932Z,98977.55
2019-04-16T19:02:16.993Z,98980.08
2019-04-16T19:04:45.763Z,98986.02
2019-04-16T19:07:14.471Z,98987.09
2019-04-16T19:09:43.252Z,98988.70
2019-04-16T19:12:12.639Z,98990.44
2019-04-16T19:14:41.355Z,98996.65
2019-04-16T19:17:10.633Z,99002.20
2019-04-16T19:19:44.510Z,98997.05
2019-04-16T19:22:10.219Z,99002.27
2019-04-16T19:24:38.940Z,98992.86
2019-04-16T19:27:07.691Z,99004.19
2019-04-16T19:29:37.142Z,99005.56
2019-04-16T19:32:06.094Z,99013.90
2019-04-16T19:34:35.237Z,99020.56
2019-04-16T19:37:05.077Z,99025.70
2019-04-16T19:39:33.799Z,99027.84
2019-04-16T19:42:02.514Z,99026.01
2019-04-16T19:44:33.725Z,99029.41
2019-04-16T19:47:02.661Z,99029.73
2019-04-16T19:49:31.376Z,99034.12
2019-04-16T19:52:00.051Z,99033.69
2019-04-16T19:54:31.670Z,99038.98
2019-04-16T19:57:00.460Z,99035.84
2019-04-16T19:59:29.238Z,99033.42
2019-04-16T20:01:59.736Z,99032.37
2019-04-16T20:04:28.414Z,99034.50
2019-04-16T20:07:01.153Z,99046.38
2019-04-16T20:09:28.105Z,99039.71
2019-04-16T20:11:57.076Z,99042.52
2019-04-16T20:14:25.801Z,99043.27
2019-04-16T20:16:54.498Z,99047.52
2019-04-16T20:19:23.515Z,99040.27
2019-04-16T20:21:52.236Z,99043.90
2019-04-16T20:24:22.501Z,99040.09
2019-04-16T20:26:51.701Z,99047.49
2019-04-16T20:29:20.423Z,99049.27
2019-04-16T20:31:49.114Z,99051.38
2019-04-16T20:34:18.434Z,99046.70
2019-04-16T20:36:47.182Z,99047.64
2019-04-16T20:39:17.083Z,99044.89
2019-04-16T20:41:52.767Z,99047.12
2019-04-16T20:44:17.943Z,99042.76
2019-04-16T20:46:46.711Z,99050.00
2019-04-16T20:49:16.874Z,99052.39
2019-04-16T20:51:46.407Z,99053.17
2019-04-16T20:54:15.091Z,99048.20
2019-04-16T20:56:43.811Z,99046.88
2019-04-16T20:59:12.794Z,99048.39
2019-04-16T21:01:41.779Z,99049.27
2019-04-16T21:04:10.478Z,99049.13
2019-04-16T21:06:41.850Z,99056.98
2019-04-16T21:09:09.891Z,99057.68
2019-04-16T21:11:41.020Z,99056.20
2019-04-16T21:14:09.026Z,99054.83
2019-04-16T21:16:37.986Z,99057.28
2019-04-16T21:19:21.710Z,99059.73
2019-04-16T21:21:38.154Z,99067.03
2019-04-16T21:24:08.352Z,99062.30
2019-04-16T21:26:37.822Z,99064.95
2019-04-16T21:29:14.417Z,99058.09
2019-04-16T21:31:46.966Z,99069.98
2019-04-16T21:34:29.653Z,99073.59
2019-04-16T21:37:11.682Z,99074.91
2019-04-16T21:39:51.362Z,99082.39
2019-04-16T21:42:18.718Z,99084.20
2019-04-16T21:44:47.451Z,99080.52
2019-04-16T21:47:16.178Z,99080.52
2019-04-16T21:49:45.917Z,99091.45
2019-04-16T21:52:14.810Z,99084.92
2019-04-16T21:54:43.590Z,99084.92
2019-04-16T21:57:13.552Z,99084.98
2019-04-16T21:59:42.920Z,99084.98
2019-04-16T22:02:17.292Z,99092.79
2019-04-16T22:04:47.054Z,99085.27
2019-04-16T22:07:15.752Z,99080.22
2019-04-16T22:09:44.468Z,99087.91
2019-04-16T22:12:15.429Z,99087.91
2019-04-16T22:14:43.679Z,99089.48
2019-04-16T22:17:12.466Z,99091.30
2019-04-16T22:19:53.218Z,99091.30
2019-04-16T22:22:15.003Z,99088.78
2019-04-16T22:24:42.300Z,99085.48
2019-04-16T22:27:11.000Z,99085.48
2019-04-16T22:29:39.700Z,99088.02
2019-04-16T22:32:08.796Z,99088.02
2019-04-16T22:34:38.820Z,99100.73
2019-04-16T22:37:07.964Z,99100.73
2019-04-16T22:43:06.197Z,99103.59
2019-04-16T22:45:39.809Z,99100.29
2019-04-16T22:48:08.804Z,99104.98
2019-04-16T22:50:38.663Z,99104.98
2019-04-16T22:53:07.802Z,99107.25
2019-04-16T22:55:36.437Z,99099.23
2019-04-16T22:58:05.493Z,99105.32
2019-04-16T23:00:44.491Z,99104.77
2019-04-16T23:03:16.641Z,99111.26
2019-04-16T23:05:45.039Z,99112.93
2019-04-16T23:08:13.741Z,99110.86
2019-04-16T23:10:42.510Z,99105.70
2019-04-16T23:13:11.214Z,99116.17
2019-04-16T23:15:40.790Z,99116.17
2019-04-16T23:18:09.804Z,99117.81
2019-04-16T23:20:40.637Z,98781.80
2019-04-16T23:23:09.649Z,99116.16
2019-04-16T23:25:38.868Z,99120.95
2019-04-16T23:28:10.972Z,99112.50
2019-04-16T23:30:38.560Z,99112.50
2019-04-16T23:33:07.647Z,99120.67
2019-04-16T23:35:43.180Z,99121.35
2019-04-16T23:38:07.050Z,99125.66
2019-04-16T23:40:36.058Z,99122.05
2019-04-16T23:43:21.913Z,99122.05
2019-04-16T23:46:10.286Z,99122.36
2019-04-16T23:48:51.023Z,99121.59
2019-04-16T23:51:28.707Z,99118.80
2019-04-16T23:54:20.566Z,99123.52
2019-04-16T23:57:05.400Z,99120.50
2019-04-16T23:59:42.744Z,99122.55
